sensor_id;sensor_type;location;lat;lon;timestamp;P1;durP1;ratioP1;P2;durP2;ratioP2
21202;SDS011;10759;51.982;9.232;2023-03-21T00:02:21;23.63;;;19.27;;
21202;SDS011;10759;51.982;9.232;2023-03-21T00:04:49;21.60;;;19.00;;
21202;SDS011;10759;51.982;9.232;2023-03-21T00:07:20;19.65;;;17.73;;
21202;SDS011;10759;51.982;9.232;2023-03-21T00:09:48;22.55;;;18.77;;
21202;SDS011;10759;51.982;9.232;2023-03-21T00:12:18;23.90;;;19.17;;
21202;SDS011;10759;51.982;9.232;2023-03-21T00:14:46;22.98;;;19.58;;
21202;SDS011;10759;51.982;9.232;2023-03-21T00:17:14;26.67;;;18.73;;
21202;SDS011;10759;51.982;9.232;2023-03-21T00:19:42;21.52;;;17.30;;
21202;SDS011;10759;51.982;9.232;2023-03-21T00:22:11;20.15;;;18.02;;
21202;SDS011;10759;51.982;9.232;2023-03-21T00:24:39;24.30;;;17.80;;
21202;SDS011;10759;51.982;9.232;2023-03-21T00:27:07;27.80;;;18.17;;
21202;SDS011;10759;51.982;9.232;2023-03-21T00:29:56;21.88;;;19.67;;
21202;SDS011;10759;51.982;9.232;2023-03-21T00:32:24;22.88;;;18.95;;
21202;SDS011;10759;51.982;9.232;2023-03-21T00:34:52;27.63;;;18.52;;
21202;SDS011;10759;51.982;9.232;2023-03-21T00:37:40;21.10;;;18.85;;
21202;SDS011;10759;51.982;9.232;2023-03-21T00:40:11;23.88;;;19.75;;
21202;SDS011;10759;51.982;9.232;2023-03-21T00:42:53;25.77;;;20.92;;
21202;SDS011;10759;51.982;9.232;2023-03-21T00:45:22;25.95;;;20.55;;
21202;SDS011;10759;51.982;9.232;2023-03-21T00:47:50;22.67;;;19.83;;
21202;SDS011;10759;51.982;9.232;2023-03-21T00:50:18;22.30;;;19.58;;
21202;SDS011;10759;51.982;9.232;2023-03-21T00:52:46;21.65;;;19.38;;
21202;SDS011;10759;51.982;9.232;2023-03-21T00:55:15;24.55;;;18.63;;
21202;SDS011;10759;51.982;9.232;2023-03-21T00:57:44;22.67;;;17.92;;
21202;SDS011;10759;51.982;9.232;2023-03-21T01:00:28;23.77;;;19.35;;
21202;SDS011;10759;51.982;9.232;2023-03-21T01:02:56;25.00;;;19.27;;
21202;SDS011;10759;51.982;9.232;2023-03-21T01:05:40;22.50;;;18.63;;
21202;SDS011;10759;51.982;9.232;2023-03-21T01:08:26;23.00;;;19.08;;
21202;SDS011;10759;51.982;9.232;2023-03-21T01:11:11;23.73;;;18.40;;
21202;SDS011;10759;51.982;9.232;2023-03-21T01:13:43;21.60;;;19.33;;
21202;SDS011;10759;51.982;9.232;2023-03-21T01:16:24;22.40;;;19.92;;
21202;SDS011;10759;51.982;9.232;2023-03-21T01:18:52;30.02;;;20.10;;
21202;SDS011;10759;51.982;9.232;2023-03-21T01:21:21;26.60;;;20.05;;
21202;SDS011;10759;51.982;9.232;2023-03-21T01:23:49;26.67;;;19.55;;
21202;SDS011;10759;51.982;9.232;2023-03-21T01:26:17;20.42;;;18.25;;
21202;SDS011;10759;51.982;9.232;2023-03-21T01:28:45;23.50;;;19.45;;
21202;SDS011;10759;51.982;9.232;2023-03-21T01:31:13;24.35;;;20.60;;
21202;SDS011;10759;51.982;9.232;2023-03-21T01:33:44;22.98;;;19.30;;
21202;SDS011;10759;51.982;9.232;2023-03-21T01:36:15;28.60;;;20.13;;
21202;SDS011;10759;51.982;9.232;2023-03-21T01:38:49;23.77;;;19.27;;
21202;SDS011;10759;51.982;9.232;2023-03-21T01:41:19;23.02;;;20.45;;
21202;SDS011;10759;51.982;9.232;2023-03-21T01:44:12;23.45;;;19.55;;
21202;SDS011;10759;51.982;9.232;2023-03-21T01:46:42;26.60;;;22.85;;
21202;SDS011;10759;51.982;9.232;2023-03-21T01:49:45;26.15;;;22.65;;
21202;SDS011;10759;51.982;9.232;2023-03-21T01:52:21;29.48;;;22.38;;
21202;SDS011;10759;51.982;9.232;2023-03-21T01:55:04;28.63;;;22.80;;
21202;SDS011;10759;51.982;9.232;2023-03-21T01:57:43;28.27;;;23.95;;
21202;SDS011;10759;51.982;9.232;2023-03-21T02:00:35;29.75;;;22.27;;
21202;SDS011;10759;51.982;9.232;2023-03-21T02:03:18;31.90;;;21.90;;
21202;SDS011;10759;51.982;9.232;2023-03-21T02:06:39;32.13;;;22.08;;
21202;SDS011;10759;51.982;9.232;2023-03-21T02:09:35;29.93;;;20.97;;
21202;SDS011;10759;51.982;9.232;2023-03-21T02:12:12;28.20;;;21.85;;
21202;SDS011;10759;51.982;9.232;2023-03-21T02:17:18;27.02;;;21.60;;
21202;SDS011;10759;51.982;9.232;2023-03-21T02:23:23;31.70;;;23.65;;
21202;SDS011;10759;51.982;9.232;2023-03-21T02:26:18;28.45;;;22.23;;
21202;SDS011;10759;51.982;9.232;2023-03-21T02:29:13;28.25;;;24.10;;
21202;SDS011;10759;51.982;9.232;2023-03-21T02:31:59;28.90;;;23.58;;
21202;SDS011;10759;51.982;9.232;2023-03-21T02:35:02;25.42;;;22.67;;
21202;SDS011;10759;51.982;9.232;2023-03-21T02:37:48;29.08;;;23.08;;
21202;SDS011;10759;51.982;9.232;2023-03-21T02:40:29;31.23;;;24.60;;
21202;SDS011;10759;51.982;9.232;2023-03-21T02:43:03;37.35;;;25.40;;
21202;SDS011;10759;51.982;9.232;2023-03-21T02:45:48;28.23;;;24.77;;
21202;SDS011;10759;51.982;9.232;2023-03-21T02:48:21;28.67;;;22.50;;
21202;SDS011;10759;51.982;9.232;2023-03-21T02:51:10;28.55;;;24.35;;
21202;SDS011;10759;51.982;9.232;2023-03-21T02:53:44;29.30;;;25.42;;
21202;SDS011;10759;51.982;9.232;2023-03-21T02:56:36;29.20;;;23.95;;
21202;SDS011;10759;51.982;9.232;2023-03-21T02:59:06;28.05;;;24.80;;
21202;SDS011;10759;51.982;9.232;2023-03-21T03:01:35;30.33;;;22.80;;
21202;SDS011;10759;51.982;9.232;2023-03-21T03:04:15;31.27;;;26.05;;
21202;SDS011;10759;51.982;9.232;2023-03-21T03:06:48;29.88;;;25.33;;
21202;SDS011;10759;51.982;9.232;2023-03-21T03:09:37;29.75;;;25.70;;
21202;SDS011;10759;51.982;9.232;2023-03-21T03:12:16;28.42;;;25.20;;
21202;SDS011;10759;51.982;9.232;2023-03-21T03:14:51;32.38;;;26.58;;
21202;SDS011;10759;51.982;9.232;2023-03-21T03:17:34;33.28;;;26.23;;
21202;SDS011;10759;51.982;9.232;2023-03-21T03:20:13;29.80;;;25.50;;
21202;SDS011;10759;51.982;9.232;2023-03-21T03:22:49;32.40;;;26.80;;
21202;SDS011;10759;51.982;9.232;2023-03-21T03:25:24;30.52;;;27.40;;
21202;SDS011;10759;51.982;9.232;2023-03-21T03:28:10;29.35;;;26.08;;
21202;SDS011;10759;51.982;9.232;2023-03-21T03:30:41;30.25;;;26.88;;
21202;SDS011;10759;51.982;9.232;2023-03-21T03:33:31;34.95;;;27.30;;
21202;SDS011;10759;51.982;9.232;2023-03-21T03:36:03;35.08;;;27.65;;
21202;SDS011;10759;51.982;9.232;2023-03-21T03:38:36;37.05;;;27.67;;
21202;SDS011;10759;51.982;9.232;2023-03-21T03:41:08;31.43;;;28.20;;
21202;SDS011;10759;51.982;9.232;2023-03-21T03:43:46;31.85;;;27.85;;
21202;SDS011;10759;51.982;9.232;2023-03-21T03:46:18;30.95;;;26.33;;
21202;SDS011;10759;51.982;9.232;2023-03-21T03:48:53;37.70;;;28.35;;
21202;SDS011;10759;51.982;9.232;2023-03-21T03:51:25;32.67;;;27.25;;
21202;SDS011;10759;51.982;9.232;2023-03-21T03:54:08;31.92;;;26.77;;
21202;SDS011;10759;51.982;9.232;2023-03-21T03:56:41;31.83;;;25.15;;
21202;SDS011;10759;51.982;9.232;2023-03-21T03:59:10;30.25;;;25.23;;
21202;SDS011;10759;51.982;9.232;2023-03-21T04:01:53;27.65;;;24.52;;
21202;SDS011;10759;51.982;9.232;2023-03-21T04:04:21;31.60;;;25.80;;
21202;SDS011;10759;51.982;9.232;2023-03-21T04:06:54;32.53;;;24.33;;
21202;SDS011;10759;51.982;9.232;2023-03-21T04:09:24;29.75;;;25.02;;
21202;SDS011;10759;51.982;9.232;2023-03-21T04:12:10;28.60;;;25.55;;
21202;SDS011;10759;51.982;9.232;2023-03-21T04:14:45;29.35;;;25.35;;
21202;SDS011;10759;51.982;9.232;2023-03-21T04:17:15;30.65;;;24.75;;
21202;SDS011;10759;51.982;9.232;2023-03-21T04:19:43;30.25;;;23.80;;
21202;SDS011;10759;51.982;9.232;2023-03-21T04:22:12;27.48;;;24.13;;
21202;SDS011;10759;51.982;9.232;2023-03-21T04:27:12;28.05;;;23.65;;
21202;SDS011;10759;51.982;9.232;2023-03-21T04:29:45;31.40;;;24.20;;
21202;SDS011;10759;51.982;9.232;2023-03-21T04:32:24;31.90;;;22.95;;
21202;SDS011;10759;51.982;9.232;2023-03-21T04:35:06;29.30;;;24.70;;
21202;SDS011;10759;51.982;9.232;2023-03-21T04:37:36;28.05;;;24.52;;
21202;SDS011;10759;51.982;9.232;2023-03-21T04:40:10;29.75;;;24.20;;
21202;SDS011;10759;51.982;9.232;2023-03-21T04:42:45;31.35;;;24.42;;
21202;SDS011;10759;51.982;9.232;2023-03-21T04:45:14;30.15;;;24.83;;
21202;SDS011;10759;51.982;9.232;2023-03-21T04:47:44;32.25;;;25.23;;
21202;SDS011;10759;51.982;9.232;2023-03-21T04:50:12;27.73;;;23.73;;
21202;SDS011;10759;51.982;9.232;2023-03-21T04:52:41;34.30;;;23.53;;
21202;SDS011;10759;51.982;9.232;2023-03-21T04:55:09;28.92;;;23.10;;
21202;SDS011;10759;51.982;9.232;2023-03-21T04:57:37;31.05;;;24.65;;
21202;SDS011;10759;51.982;9.232;2023-03-21T05:00:08;28.08;;;23.65;;
21202;SDS011;10759;51.982;9.232;2023-03-21T05:02:38;32.28;;;23.88;;
21202;SDS011;10759;51.982;9.232;2023-03-21T05:05:06;29.35;;;22.50;;
21202;SDS011;10759;51.982;9.232;2023-03-21T05:10:05;31.85;;;22.27;;
21202;SDS011;10759;51.982;9.232;2023-03-21T05:12:34;25.80;;;21.85;;
21202;SDS011;10759;51.982;9.232;2023-03-21T05:15:02;23.23;;;20.88;;
21202;SDS011;10759;51.982;9.232;2023-03-21T05:17:32;28.17;;;21.55;;
21202;SDS011;10759;51.982;9.232;2023-03-21T05:20:00;29.80;;;22.83;;
21202;SDS011;10759;51.982;9.232;2023-03-21T05:22:32;24.48;;;21.83;;
21202;SDS011;10759;51.982;9.232;2023-03-21T05:25:09;29.42;;;23.15;;
21202;SDS011;10759;51.982;9.232;2023-03-21T05:28:06;29.33;;;21.58;;
21202;SDS011;10759;51.982;9.232;2023-03-21T05:30:35;25.92;;;22.80;;
21202;SDS011;10759;51.982;9.232;2023-03-21T05:33:04;27.83;;;22.20;;
21202;SDS011;10759;51.982;9.232;2023-03-21T05:35:33;33.92;;;23.02;;
21202;SDS011;10759;51.982;9.232;2023-03-21T05:38:04;32.28;;;23.55;;
21202;SDS011;10759;51.982;9.232;2023-03-21T05:40:45;28.52;;;21.15;;
21202;SDS011;10759;51.982;9.232;2023-03-21T05:43:13;28.70;;;21.40;;
21202;SDS011;10759;51.982;9.232;2023-03-21T05:45:41;25.85;;;20.23;;
21202;SDS011;10759;51.982;9.232;2023-03-21T05:48:11;26.23;;;20.27;;
21202;SDS011;10759;51.982;9.232;2023-03-21T05:50:57;28.83;;;21.17;;
21202;SDS011;10759;51.982;9.232;2023-03-21T05:53:25;23.02;;;20.42;;
21202;SDS011;10759;51.982;9.232;2023-03-21T05:55:53;28.98;;;21.30;;
21202;SDS011;10759;51.982;9.232;2023-03-21T05:58:38;26.02;;;20.35;;
21202;SDS011;10759;51.982;9.232;2023-03-21T06:01:06;22.10;;;19.70;;
21202;SDS011;10759;51.982;9.232;2023-03-21T06:03:37;23.50;;;20.08;;
21202;SDS011;10759;51.982;9.232;2023-03-21T06:06:12;25.98;;;20.13;;
21202;SDS011;10759;51.982;9.232;2023-03-21T06:09:05;23.73;;;19.90;;
21202;SDS011;10759;51.982;9.232;2023-03-21T06:11:34;26.40;;;20.10;;
21202;SDS011;10759;51.982;9.232;2023-03-21T06:14:28;21.40;;;19.15;;
21202;SDS011;10759;51.982;9.232;2023-03-21T06:17:15;24.52;;;20.25;;
21202;SDS011;10759;51.982;9.232;2023-03-21T06:19:55;27.80;;;20.45;;
21202;SDS011;10759;51.982;9.232;2023-03-21T06:22:28;23.58;;;20.55;;
21202;SDS011;10759;51.982;9.232;2023-03-21T06:24:56;32.55;;;21.20;;
21202;SDS011;10759;51.982;9.232;2023-03-21T06:27:25;28.15;;;20.70;;
21202;SDS011;10759;51.982;9.232;2023-03-21T06:29:54;27.50;;;20.35;;
21202;SDS011;10759;51.982;9.232;2023-03-21T06:32:24;24.77;;;20.02;;
21202;SDS011;10759;51.982;9.232;2023-03-21T06:34:59;28.35;;;21.60;;
21202;SDS011;10759;51.982;9.232;2023-03-21T06:37:27;34.08;;;19.10;;
21202;SDS011;10759;51.982;9.232;2023-03-21T06:39:55;28.90;;;18.88;;
21202;SDS011;10759;51.982;9.232;2023-03-21T06:42:23;24.33;;;19.20;;
21202;SDS011;10759;51.982;9.232;2023-03-21T06:44:57;28.48;;;18.95;;
21202;SDS011;10759;51.982;9.232;2023-03-21T06:47:26;22.73;;;18.67;;
21202;SDS011;10759;51.982;9.232;2023-03-21T06:49:54;22.27;;;17.23;;
21202;SDS011;10759;51.982;9.232;2023-03-21T06:52:24;27.10;;;18.00;;
21202;SDS011;10759;51.982;9.232;2023-03-21T06:54:52;28.73;;;19.48;;
21202;SDS011;10759;51.982;9.232;2023-03-21T06:57:20;23.02;;;18.58;;
21202;SDS011;10759;51.982;9.232;2023-03-21T06:59:49;21.75;;;18.10;;
21202;SDS011;10759;51.982;9.232;2023-03-21T07:02:19;20.52;;;16.77;;
21202;SDS011;10759;51.982;9.232;2023-03-21T07:05:07;23.05;;;18.02;;
21202;SDS011;10759;51.982;9.232;2023-03-21T07:07:37;24.05;;;19.67;;
21202;SDS011;10759;51.982;9.232;2023-03-21T07:12:43;22.65;;;18.38;;
21202;SDS011;10759;51.982;9.232;2023-03-21T07:15:23;24.60;;;19.50;;
21202;SDS011;10759;51.982;9.232;2023-03-21T07:17:51;22.77;;;18.63;;
21202;SDS011;10759;51.982;9.232;2023-03-21T07:20:19;24.98;;;20.17;;
21202;SDS011;10759;51.982;9.232;2023-03-21T07:22:48;24.00;;;18.92;;
21202;SDS011;10759;51.982;9.232;2023-03-21T07:25:17;27.00;;;18.67;;
21202;SDS011;10759;51.982;9.232;2023-03-21T07:27:46;22.20;;;18.08;;
21202;SDS011;10759;51.982;9.232;2023-03-21T07:30:15;31.05;;;19.30;;
21202;SDS011;10759;51.982;9.232;2023-03-21T07:32:43;25.17;;;18.95;;
21202;SDS011;10759;51.982;9.232;2023-03-21T07:35:15;22.85;;;18.38;;
21202;SDS011;10759;51.982;9.232;2023-03-21T07:37:43;26.70;;;18.33;;
21202;SDS011;10759;51.982;9.232;2023-03-21T07:40:16;27.90;;;19.15;;
21202;SDS011;10759;51.982;9.232;2023-03-21T07:42:44;22.70;;;18.25;;
21202;SDS011;10759;51.982;9.232;2023-03-21T07:45:26;24.45;;;18.08;;
21202;SDS011;10759;51.982;9.232;2023-03-21T07:47:54;28.92;;;19.40;;
21202;SDS011;10759;51.982;9.232;2023-03-21T07:50:22;24.63;;;18.02;;
21202;SDS011;10759;51.982;9.232;2023-03-21T07:52:50;25.85;;;18.38;;
21202;SDS011;10759;51.982;9.232;2023-03-21T07:55:19;24.52;;;17.77;;
21202;SDS011;10759;51.982;9.232;2023-03-21T07:57:48;23.98;;;17.42;;
21202;SDS011;10759;51.982;9.232;2023-03-21T08:00:17;26.92;;;17.67;;
21202;SDS011;10759;51.982;9.232;2023-03-21T08:02:49;21.95;;;17.33;;
21202;SDS011;10759;51.982;9.232;2023-03-21T08:05:27;29.20;;;17.38;;
21202;SDS011;10759;51.982;9.232;2023-03-21T08:07:56;21.25;;;16.13;;
21202;SDS011;10759;51.982;9.232;2023-03-21T08:10:25;19.38;;;15.23;;
21202;SDS011;10759;51.982;9.232;2023-03-21T08:12:53;16.95;;;14.95;;
21202;SDS011;10759;51.982;9.232;2023-03-21T08:15:21;19.30;;;14.52;;
21202;SDS011;10759;51.982;9.232;2023-03-21T08:17:49;21.50;;;14.75;;
21202;SDS011;10759;51.982;9.232;2023-03-21T08:20:18;19.98;;;15.20;;
21202;SDS011;10759;51.982;9.232;2023-03-21T08:22:47;19.85;;;14.52;;
21202;SDS011;10759;51.982;9.232;2023-03-21T08:25:18;20.40;;;14.52;;
21202;SDS011;10759;51.982;9.232;2023-03-21T08:27:48;22.30;;;13.68;;
21202;SDS011;10759;51.982;9.232;2023-03-21T08:30:18;21.42;;;14.15;;
21202;SDS011;10759;51.982;9.232;2023-03-21T08:32:47;17.30;;;14.18;;
21202;SDS011;10759;51.982;9.232;2023-03-21T08:35:17;27.23;;;14.32;;
21202;SDS011;10759;51.982;9.232;2023-03-21T08:37:45;19.98;;;14.50;;
21202;SDS011;10759;51.982;9.232;2023-03-21T08:40:15;18.90;;;12.73;;
21202;SDS011;10759;51.982;9.232;2023-03-21T08:42:44;24.65;;;14.73;;
21202;SDS011;10759;51.982;9.232;2023-03-21T08:45:15;25.15;;;14.95;;
21202;SDS011;10759;51.982;9.232;2023-03-21T08:47:43;18.05;;;13.68;;
21202;SDS011;10759;51.982;9.232;2023-03-21T08:50:12;19.58;;;13.10;;
21202;SDS011;10759;51.982;9.232;2023-03-21T08:55:10;22.75;;;13.43;;
21202;SDS011;10759;51.982;9.232;2023-03-21T08:57:39;18.33;;;13.00;;
21202;SDS011;10759;51.982;9.232;2023-03-21T09:00:08;17.17;;;13.32;;
21202;SDS011;10759;51.982;9.232;2023-03-21T09:02:40;19.58;;;13.15;;
21202;SDS011;10759;51.982;9.232;2023-03-21T09:05:09;16.15;;;13.13;;
21202;SDS011;10759;51.982;9.232;2023-03-21T09:07:38;14.38;;;12.32;;
21202;SDS011;10759;51.982;9.232;2023-03-21T09:10:07;19.25;;;12.95;;
21202;SDS011;10759;51.982;9.232;2023-03-21T09:12:48;16.23;;;12.77;;
21202;SDS011;10759;51.982;9.232;2023-03-21T09:15:17;17.30;;;12.35;;
21202;SDS011;10759;51.982;9.232;2023-03-21T09:17:48;20.55;;;12.32;;
21202;SDS011;10759;51.982;9.232;2023-03-21T09:20:18;18.52;;;13.90;;
21202;SDS011;10759;51.982;9.232;2023-03-21T09:22:51;16.83;;;13.27;;
21202;SDS011;10759;51.982;9.232;2023-03-21T09:25:20;17.35;;;13.30;;
21202;SDS011;10759;51.982;9.232;2023-03-21T09:27:48;15.45;;;11.70;;
21202;SDS011;10759;51.982;9.232;2023-03-21T09:30:17;14.48;;;12.75;;
21202;SDS011;10759;51.982;9.232;2023-03-21T09:32:52;15.77;;;12.45;;
21202;SDS011;10759;51.982;9.232;2023-03-21T09:37:49;14.52;;;12.85;;
21202;SDS011;10759;51.982;9.232;2023-03-21T09:40:19;21.52;;;13.25;;
21202;SDS011;10759;51.982;9.232;2023-03-21T09:42:54;16.30;;;11.80;;
21202;SDS011;10759;51.982;9.232;2023-03-21T09:48:06;13.07;;;11.20;;
21202;SDS011;10759;51.982;9.232;2023-03-21T09:50:45;16.55;;;12.95;;
21202;SDS011;10759;51.982;9.232;2023-03-21T09:53:15;17.02;;;12.07;;
21202;SDS011;10759;51.982;9.232;2023-03-21T09:55:52;18.90;;;13.30;;
21202;SDS011;10759;51.982;9.232;2023-03-21T09:58:23;18.35;;;12.75;;
21202;SDS011;10759;51.982;9.232;2023-03-21T10:00:56;17.73;;;12.05;;
21202;SDS011;10759;51.982;9.232;2023-03-21T10:03:32;18.67;;;13.02;;
21202;SDS011;10759;51.982;9.232;2023-03-21T10:06:02;19.83;;;12.38;;
21202;SDS011;10759;51.982;9.232;2023-03-21T10:08:37;17.23;;;12.88;;
21202;SDS011;10759;51.982;9.232;2023-03-21T10:11:09;20.65;;;13.57;;
21202;SDS011;10759;51.982;9.232;2023-03-21T10:13:43;20.20;;;13.80;;
21202;SDS011;10759;51.982;9.232;2023-03-21T10:16:16;19.23;;;12.98;;
21202;SDS011;10759;51.982;9.232;2023-03-21T10:18:49;21.48;;;14.82;;
21202;SDS011;10759;51.982;9.232;2023-03-21T10:21:19;21.75;;;14.13;;
21202;SDS011;10759;51.982;9.232;2023-03-21T10:24:10;22.73;;;15.65;;
21202;SDS011;10759;51.982;9.232;2023-03-21T10:26:41;24.10;;;16.10;;
21202;SDS011;10759;51.982;9.232;2023-03-21T10:29:10;16.38;;;14.38;;
21202;SDS011;10759;51.982;9.232;2023-03-21T10:31:42;16.67;;;14.70;;
21202;SDS011;10759;51.982;9.232;2023-03-21T10:34:14;22.33;;;16.35;;
21202;SDS011;10759;51.982;9.232;2023-03-21T10:36:45;23.65;;;16.73;;
21202;SDS011;10759;51.982;9.232;2023-03-21T10:39:16;21.65;;;16.20;;
21202;SDS011;10759;51.982;9.232;2023-03-21T10:41:50;25.27;;;17.10;;
21202;SDS011;10759;51.982;9.232;2023-03-21T10:44:18;22.98;;;17.58;;
21202;SDS011;10759;51.982;9.232;2023-03-21T10:46:49;25.02;;;18.15;;
21202;SDS011;10759;51.982;9.232;2023-03-21T10:49:20;22.88;;;16.73;;
21202;SDS011;10759;51.982;9.232;2023-03-21T10:51:49;26.77;;;17.63;;
21202;SDS011;10759;51.982;9.232;2023-03-21T10:54:19;22.88;;;17.73;;
21202;SDS011;10759;51.982;9.232;2023-03-21T10:56:52;23.77;;;16.85;;
21202;SDS011;10759;51.982;9.232;2023-03-21T10:59:24;28.40;;;18.13;;
21202;SDS011;10759;51.982;9.232;2023-03-21T11:01:55;22.83;;;18.13;;
21202;SDS011;10759;51.982;9.232;2023-03-21T11:04:25;20.60;;;17.40;;
21202;SDS011;10759;51.982;9.232;2023-03-21T11:06:56;24.90;;;18.55;;
21202;SDS011;10759;51.982;9.232;2023-03-21T11:09:41;28.40;;;18.52;;
21202;SDS011;10759;51.982;9.232;2023-03-21T11:12:11;26.48;;;17.92;;
21202;SDS011;10759;51.982;9.232;2023-03-21T11:14:41;23.65;;;17.30;;
21202;SDS011;10759;51.982;9.232;2023-03-21T11:17:21;21.38;;;16.75;;
21202;SDS011;10759;51.982;9.232;2023-03-21T11:19:52;22.30;;;18.00;;
21202;SDS011;10759;51.982;9.232;2023-03-21T11:22:24;21.52;;;17.02;;
21202;SDS011;10759;51.982;9.232;2023-03-21T11:24:56;23.90;;;16.45;;
21202;SDS011;10759;51.982;9.232;2023-03-21T11:27:28;22.73;;;16.75;;
21202;SDS011;10759;51.982;9.232;2023-03-21T11:29:58;16.65;;;14.40;;
21202;SDS011;10759;51.982;9.232;2023-03-21T11:32:31;20.80;;;14.25;;
21202;SDS011;10759;51.982;9.232;2023-03-21T11:35:03;19.05;;;13.65;;
21202;SDS011;10759;51.982;9.232;2023-03-21T11:37:33;19.48;;;12.93;;
21202;SDS011;10759;51.982;9.232;2023-03-21T11:40:07;16.80;;;13.05;;
21202;SDS011;10759;51.982;9.232;2023-03-21T11:42:47;13.77;;;12.23;;
21202;SDS011;10759;51.982;9.232;2023-03-21T11:45:17;16.67;;;12.35;;
21202;SDS011;10759;51.982;9.232;2023-03-21T11:47:47;16.90;;;12.80;;
21202;SDS011;10759;51.982;9.232;2023-03-21T11:50:19;18.23;;;12.45;;
21202;SDS011;10759;51.982;9.232;2023-03-21T11:53:05;13.93;;;11.70;;
21202;SDS011;10759;51.982;9.232;2023-03-21T11:55:45;15.27;;;11.45;;
21202;SDS011;10759;51.982;9.232;2023-03-21T11:58:31;13.85;;;11.07;;
21202;SDS011;10759;51.982;9.232;2023-03-21T12:01:06;14.35;;;11.25;;
21202;SDS011;10759;51.982;9.232;2023-03-21T12:03:53;15.77;;;11.07;;
21202;SDS011;10759;51.982;9.232;2023-03-21T12:06:29;11.93;;;10.32;;
21202;SDS011;10759;51.982;9.232;2023-03-21T12:09:03;11.70;;;10.55;;
21202;SDS011;10759;51.982;9.232;2023-03-21T12:11:44;11.60;;;9.43;;
21202;SDS011;10759;51.982;9.232;2023-03-21T12:14:26;11.82;;;10.68;;
21202;SDS011;10759;51.982;9.232;2023-03-21T12:17:05;12.90;;;10.60;;
21202;SDS011;10759;51.982;9.232;2023-03-21T12:19:51;14.60;;;10.38;;
21202;SDS011;10759;51.982;9.232;2023-03-21T12:22:39;16.23;;;10.82;;
21202;SDS011;10759;51.982;9.232;2023-03-21T12:25:14;14.55;;;11.00;;
21202;SDS011;10759;51.982;9.232;2023-03-21T12:27:46;15.30;;;11.73;;
21202;SDS011;10759;51.982;9.232;2023-03-21T12:30:31;16.63;;;12.93;;
21202;SDS011;10759;51.982;9.232;2023-03-21T12:33:06;12.75;;;11.15;;
21202;SDS011;10759;51.982;9.232;2023-03-21T12:35:53;14.60;;;11.20;;
21202;SDS011;10759;51.982;9.232;2023-03-21T12:38:40;12.68;;;10.93;;
21202;SDS011;10759;51.982;9.232;2023-03-21T12:41:19;12.38;;;11.13;;
21202;SDS011;10759;51.982;9.232;2023-03-21T12:43:52;15.07;;;11.70;;
21202;SDS011;10759;51.982;9.232;2023-03-21T12:46:27;14.02;;;10.75;;
21202;SDS011;10759;51.982;9.232;2023-03-21T12:49:00;12.75;;;11.15;;
21202;SDS011;10759;51.982;9.232;2023-03-21T12:51:35;13.63;;;11.75;;
21202;SDS011;10759;51.982;9.232;2023-03-21T12:54:11;13.15;;;10.75;;
21202;SDS011;10759;51.982;9.232;2023-03-21T12:56:46;16.75;;;12.00;;
21202;SDS011;10759;51.982;9.232;2023-03-21T12:59:24;12.25;;;10.68;;
21202;SDS011;10759;51.982;9.232;2023-03-21T13:01:59;13.83;;;11.13;;
21202;SDS011;10759;51.982;9.232;2023-03-21T13:04:41;12.70;;;10.70;;
21202;SDS011;10759;51.982;9.232;2023-03-21T13:07:14;11.73;;;10.55;;
21202;SDS011;10759;51.982;9.232;2023-03-21T13:09:47;14.75;;;10.93;;
21202;SDS011;10759;51.982;9.232;2023-03-21T13:14:52;12.32;;;10.93;;
21202;SDS011;10759;51.982;9.232;2023-03-21T13:17:31;12.38;;;10.63;;
21202;SDS011;10759;51.982;9.232;2023-03-21T13:20:05;17.48;;;11.60;;
21202;SDS011;10759;51.982;9.232;2023-03-21T13:22:45;11.80;;;10.52;;
21202;SDS011;10759;51.982;9.232;2023-03-21T13:25:18;13.90;;;10.15;;
21202;SDS011;10759;51.982;9.232;2023-03-21T13:27:51;9.65;;;8.68;;
21202;SDS011;10759;51.982;9.232;2023-03-21T13:30:21;10.75;;;8.85;;
21202;SDS011;10759;51.982;9.232;2023-03-21T13:32:54;10.10;;;8.75;;
21202;SDS011;10759;51.982;9.232;2023-03-21T13:35:32;9.43;;;8.52;;
21202;SDS011;10759;51.982;9.232;2023-03-21T13:38:04;12.55;;;8.93;;
21202;SDS011;10759;51.982;9.232;2023-03-21T13:40:41;12.85;;;10.32;;
21202;SDS011;10759;51.982;9.232;2023-03-21T13:46:04;9.55;;;7.80;;
21202;SDS011;10759;51.982;9.232;2023-03-21T13:48:44;10.70;;;8.18;;
21202;SDS011;10759;51.982;9.232;2023-03-21T13:51:38;13.95;;;7.55;;
21202;SDS011;10759;51.982;9.232;2023-03-21T13:54:16;8.98;;;7.57;;
21202;SDS011;10759;51.982;9.232;2023-03-21T13:56:49;9.05;;;7.47;;
21202;SDS011;10759;51.982;9.232;2023-03-21T13:59:34;11.13;;;7.45;;
21202;SDS011;10759;51.982;9.232;2023-03-21T14:02:17;13.13;;;8.02;;
21202;SDS011;10759;51.982;9.232;2023-03-21T14:04:55;9.40;;;7.55;;
21202;SDS011;10759;51.982;9.232;2023-03-21T14:07:31;11.95;;;10.43;;
21202;SDS011;10759;51.982;9.232;2023-03-21T14:10:03;12.27;;;7.80;;
21202;SDS011;10759;51.982;9.232;2023-03-21T14:12:35;9.38;;;6.90;;
21202;SDS011;10759;51.982;9.232;2023-03-21T14:15:11;10.02;;;7.35;;
21202;SDS011;10759;51.982;9.232;2023-03-21T14:17:51;14.40;;;9.98;;
21202;SDS011;10759;51.982;9.232;2023-03-21T14:20:20;10.75;;;7.20;;
21202;SDS011;10759;51.982;9.232;2023-03-21T14:22:51;8.55;;;7.70;;
21202;SDS011;10759;51.982;9.232;2023-03-21T14:25:20;8.68;;;7.28;;
21202;SDS011;10759;51.982;9.232;2023-03-21T14:27:56;10.23;;;7.75;;
21202;SDS011;10759;51.982;9.232;2023-03-21T14:30:27;10.10;;;7.90;;
21202;SDS011;10759;51.982;9.232;2023-03-21T14:32:59;8.23;;;7.43;;
21202;SDS011;10759;51.982;9.232;2023-03-21T14:35:32;8.88;;;7.43;;
21202;SDS011;10759;51.982;9.232;2023-03-21T14:38:03;11.43;;;7.32;;
21202;SDS011;10759;51.982;9.232;2023-03-21T14:40:33;9.48;;;7.10;;
21202;SDS011;10759;51.982;9.232;2023-03-21T14:43:04;9.18;;;6.43;;
21202;SDS011;10759;51.982;9.232;2023-03-21T14:45:33;7.47;;;6.15;;
21202;SDS011;10759;51.982;9.232;2023-03-21T14:48:04;8.20;;;6.32;;
21202;SDS011;10759;51.982;9.232;2023-03-21T14:50:35;7.80;;;6.65;;
21202;SDS011;10759;51.982;9.232;2023-03-21T14:53:10;6.88;;;6.18;;
21202;SDS011;10759;51.982;9.232;2023-03-21T14:55:43;8.20;;;6.95;;
21202;SDS011;10759;51.982;9.232;2023-03-21T14:58:14;8.50;;;7.63;;
21202;SDS011;10759;51.982;9.232;2023-03-21T15:00:46;8.90;;;8.00;;
21202;SDS011;10759;51.982;9.232;2023-03-21T15:03:15;10.55;;;8.40;;
21202;SDS011;10759;51.982;9.232;2023-03-21T15:05:44;11.88;;;9.48;;
21202;SDS011;10759;51.982;9.232;2023-03-21T15:08:13;9.23;;;8.30;;
21202;SDS011;10759;51.982;9.232;2023-03-21T15:10:52;11.75;;;10.48;;
21202;SDS011;10759;51.982;9.232;2023-03-21T15:13:34;11.40;;;9.45;;
21202;SDS011;10759;51.982;9.232;2023-03-21T15:16:06;16.25;;;14.60;;
21202;SDS011;10759;51.982;9.232;2023-03-21T15:18:36;10.00;;;8.82;;
21202;SDS011;10759;51.982;9.232;2023-03-21T15:21:09;11.25;;;10.02;;
21202;SDS011;10759;51.982;9.232;2023-03-21T15:23:43;11.48;;;10.02;;
21202;SDS011;10759;51.982;9.232;2023-03-21T15:28:44;9.75;;;8.80;;
21202;SDS011;10759;51.982;9.232;2023-03-21T15:31:14;8.95;;;8.02;;
21202;SDS011;10759;51.982;9.232;2023-03-21T15:33:45;18.73;;;16.98;;